Time;durP1;ratioP1;P1;durP2;ratioP2;P2;SDS_P1;SDS_P2;PMS_P1;PMS_P2;Temp;Humidity;BMP_temperature;BMP_pressure;BME280_temperature;BME280_humidity;BME280_pressure;Samples;Min_cycle;Max_cycle;Signal;HPM_P1;HPM_P2
2023/03/26 00:02:07;;;;;;;22.20;19.00;;;;;;;11.67;84.72;97759.17;107612;1254;73508;-38
2023/03/26 00:04:37;;;;;;;21.70;17.70;;;;;;;11.67;84.72;97758.78;107593;1251;61590;-39
2023/03/26 00:07:08;;;;;;;21.20;16.10;;;;;;;11.61;84.75;97754.41;107700;1254;61539;-38
2023/03/26 00:09:37;;;;;;;20.30;13.60;;;;;;;11.53;84.94;97756.99;107637;1251;73369;-39
2023/03/26 00:12:10;;;;;;;16.80;11.50;;;;;;;11.52;85.01;97754.84;107661;1251;69908;-39
2023/03/26 00:14:44;;;;;;;13.80;10.60;;;;;;;11.53;85.10;97754.20;107585;1251;73314;-39
2023/03/26 00:17:12;;;;;;;13.50;10.10;;;;;;;11.51;85.12;97753.38;107614;1251;61555;-39
2023/03/26 00:19:42;;;;;;;10.70;8.80;;;;;;;11.44;85.38;97755.46;107639;1251;59765;-39
2023/03/26 00:22:13;;;;;;;;;;;;;;;11.44;85.27;97758.02;107668;1251;74715;-39
2023/03/26 00:24:44;;;;;;;10.00;7.40;;;;;;;11.42;85.48;97753.55;107585;1251;69919;-39
2023/03/26 00:27:19;;;;;;;8.40;6.20;;;;;;;11.35;85.76;97755.63;107611;1251;73713;-39
2023/03/26 00:29:48;;;;;;;7.90;6.80;;;;;;;11.29;86.05;97749.64;107730;1250;63127;-38
2023/03/26 00:32:16;;;;;;;6.60;5.70;;;;;;;11.31;86.11;97751.25;107770;1251;61564;-39
2023/03/26 00:34:46;;;;;;;6.50;5.40;;;;;;;11.34;86.11;97750.85;107703;1251;75172;-39
2023/03/26 00:37:15;;;;;;;6.50;5.10;;;;;;;11.30;86.32;97751.34;107713;1251;69978;-39
2023/03/26 00:39:47;;;;;;;8.30;4.80;;;;;;;11.24;86.54;97751.01;107719;1251;73825;-38
2023/03/26 00:42:17;;;;;;;6.40;4.50;;;;;;;11.24;86.77;97752.26;107762;1251;63292;-39
2023/03/26 00:44:46;;;;;;;6.70;4.40;;;;;;;11.27;86.90;97762.07;107732;1252;61509;-38
2023/03/26 00:47:14;;;;;;;4.80;4.20;;;;;;;11.25;87.16;97767.28;107674;1251;75012;-39
2023/03/26 00:49:45;;;;;;;4.90;3.60;;;;;;;11.21;87.43;97773.45;107695;1251;69915;-38
2023/03/26 00:52:19;;;;;;;3.60;3.20;;;;;;;11.21;87.41;97781.50;107709;1251;72642;-39
2023/03/26 00:54:50;;;;;;;3.70;3.10;;;;;;;11.20;87.22;97785.45;107672;1251;61559;-39
2023/03/26 00:57:21;;;;;;;2.50;2.30;;;;;;;11.15;86.08;97794.73;107711;1251;61230;-39
2023/03/26 01:00:14;;;;;;;2.10;1.90;;;;;;;11.16;85.77;97799.45;107677;1254;74849;-39
2023/03/26 01:02:45;;;;;;;1.60;1.50;;;;;;;11.17;85.15;97801.15;107564;1251;70398;-39
2023/03/26 01:05:33;;;;;;;1.60;1.40;;;;;;;11.13;84.73;97808.15;107621;1251;72272;-39
2023/03/26 01:08:24;;;;;;;1.50;1.20;;;;;;;11.08;84.21;97813.23;107688;1252;63203;-39
2023/03/26 01:11:01;;;;;;;1.30;1.20;;;;;;;11.04;83.58;97803.65;107764;1251;60303;-39
2023/03/26 01:13:36;;;;;;;2.10;1.30;;;;;;;10.95;83.16;97806.91;107698;1251;75011;-39
2023/03/26 01:16:08;;;;;;;1.50;1.00;;;;;;;10.84;82.93;97810.92;107751;1251;69647;-39
2023/03/26 01:18:39;;;;;;;1.40;1.00;;;;;;;10.72;82.44;97815.50;107735;1251;73708;-39
2023/03/26 01:21:13;;;;;;;2.80;1.10;;;;;;;10.66;82.44;97816.48;107663;1251;60516;-39
2023/03/26 01:23:45;;;;;;;1.60;1.00;;;;;;;10.55;82.71;97826.06;107605;1251;61751;-39
2023/03/26 01:26:29;;;;;;;2.20;1.10;;;;;;;10.44;83.34;97824.73;107664;1254;75058;-39
2023/03/26 01:29:01;;;;;;;1.80;0.90;;;;;;;10.41;83.50;97828.53;107647;1251;69931;-39
2023/03/26 01:31:51;;;;;;;2.20;1.30;;;;;;;10.41;84.01;97832.64;107628;1251;73833;-39
2023/03/26 01:34:52;;;;;;;2.10;1.60;;;;;;;10.40;84.07;97842.56;107689;1254;61319;-39
2023/03/26 01:37:33;;;;;;;1.40;1.10;;;;;;;10.37;84.42;97849.15;107486;1251;60329;-39
2023/03/26 01:40:08;;;;;;;2.10;1.10;;;;;;;10.39;84.49;97842.34;107641;1251;74864;-39
2023/03/26 01:42:48;;;;;;;3.60;1.70;;;;;;;10.42;84.38;97846.04;107693;1254;69877;-39
2023/03/26 01:45:29;;;;;;;4.70;1.20;;;;;;;10.43;84.46;97848.11;107655;1251;73891;-39
2023/03/26 01:47:57;;;;;;;3.10;1.60;;;;;;;10.45;84.76;97845.02;107663;1254;61362;-39
2023/03/26 01:50:27;;;;;;;2.80;1.60;;;;;;;10.52;84.55;97851.24;107587;1251;61164;-39
2023/03/26 01:52:55;;;;;;;1.80;1.40;;;;;;;10.63;84.06;97848.63;107714;1251;75026;-39
2023/03/26 01:55:52;;;;;;;2.20;1.50;;;;;;;10.67;83.66;97852.40;107712;1251;69867;-39
2023/03/26 01:58:45;;;;;;;2.90;1.60;;;;;;;10.65;83.07;97851.55;107475;1250;72900;-39
2023/03/26 02:01:35;;;;;;;3.30;1.60;;;;;;;10.56;82.56;97843.80;107720;1251;63041;-39
2023/03/26 02:04:16;;;;;;;3.00;1.40;;;;;;;10.54;81.88;97848.22;107664;1252;61502;-39
2023/03/26 02:06:50;;;;;;;3.40;1.90;;;;;;;10.46;81.75;97852.44;107576;1251;74851;-39
2023/03/26 02:09:21;;;;;;;3.50;1.60;;;;;;;10.36;82.16;97852.02;107563;1251;69988;-39
2023/03/26 02:11:49;;;;;;;3.30;1.60;;;;;;;10.27;82.40;97854.85;107591;1252;73595;-40
2023/03/26 02:14:18;;;;;;;3.90;1.80;;;;;;;10.25;82.34;97860.35;107448;1251;62839;-40
2023/03/26 02:16:47;;;;;;;3.10;1.50;;;;;;;10.25;82.15;97861.98;107538;1254;61216;-40
2023/03/26 02:19:20;;;;;;;3.90;2.10;;;;;;;10.16;81.96;97861.84;107577;1250;74600;-39
2023/03/26 02:21:50;;;;;;;4.90;1.60;;;;;;;10.05;82.25;97872.06;107630;1251;69242;-40
2023/03/26 02:24:19;;;;;;;3.10;1.80;;;;;;;10.04;82.44;97881.83;107797;1251;73744;-39
2023/03/26 02:26:48;;;;;;;4.40;1.80;;;;;;;10.08;82.38;97885.61;107700;1251;60500;-39
2023/03/26 02:29:19;;;;;;;4.50;1.50;;;;;;;10.05;82.12;97886.55;107767;1251;61065;-39
2023/03/26 02:31:48;;;;;;;3.40;1.50;;;;;;;10.01;82.15;97889.95;107753;1251;75032;-39
2023/03/26 02:34:18;;;;;;;;;;;;;;;10.00;81.85;97893.52;107747;1251;70055;-39
2023/03/26 02:36:50;;;;;;;2.70;1.60;;;;;;;9.99;82.11;97887.79;107718;1254;74030;-39
2023/03/26 02:39:19;;;;;;;4.10;1.60;;;;;;;9.95;82.04;97889.96;107795;1252;61563;-39
2023/03/26 02:42:02;;;;;;;4.10;2.10;;;;;;;9.92;81.78;97901.27;107676;1251;61670;-40
2023/03/26 02:44:34;;;;;;;2.60;1.50;;;;;;;9.86;81.80;97911.34;107670;1251;74821;-39
2023/03/26 02:47:02;;;;;;;4.10;2.00;;;;;;;9.82;81.54;97899.52;107672;1251;69912;-39
2023/03/26 02:49:37;;;;;;;4.40;1.80;;;;;;;9.86;81.09;97913.66;107668;1251;73832;-39
2023/03/26 02:52:06;;;;;;;3.60;1.80;;;;;;;9.82;81.26;97922.00;107700;1251;61290;-39
2023/03/26 02:54:36;;;;;;;3.00;1.60;;;;;;;9.76;81.25;97924.65;107674;1251;61440;-39
2023/03/26 02:57:31;;;;;;;4.50;2.00;;;;;;;9.74;80.96;97931.98;107630;1251;75055;-40
2023/03/26 03:00:13;;;;;;;4.30;1.80;;;;;;;9.73;80.87;97931.98;107684;1251;69807;-39
2023/03/26 03:02:47;;;;;;;3.00;1.60;;;;;;;9.71;80.76;97936.71;107617;1251;73836;-39
2023/03/26 03:05:31;;;;;;;3.50;1.50;;;;;;;9.66;80.79;97940.27;107520;1251;63161;-39
2023/03/26 03:08:21;;;;;;;3.20;1.70;;;;;;;9.61;80.57;97942.75;107577;1250;61898;-39
2023/03/26 03:11:15;;;;;;;2.30;1.40;;;;;;;9.59;80.80;97942.36;107458;1251;75105;-39
2023/03/26 03:13:47;;;;;;;3.00;1.80;;;;;;;9.55;80.67;97943.52;107579;1251;69905;-39
2023/03/26 03:16:19;;;;;;;2.50;1.30;;;;;;;9.50;80.68;97943.52;107681;1250;73561;-39
2023/03/26 03:18:53;;;;;;;2.60;1.30;;;;;;;9.54;80.58;97951.95;107712;1251;60794;-39
2023/03/26 03:21:29;;;;;;;3.40;1.40;;;;;;;9.58;80.29;97952.64;107741;1251;61417;-39
2023/03/26 03:23:58;;;;;;;3.90;2.10;;;;;;;9.56;80.40;97953.11;107710;1251;75053;-39
2023/03/26 03:26:29;;;;;;;2.50;1.50;;;;;;;9.55;80.22;97959.13;107685;1250;69853;-39
2023/03/26 03:29:03;;;;;;;2.80;1.20;;;;;;;9.49;79.96;97967.24;107735;1250;73855;-39
2023/03/26 03:31:32;;;;;;;3.30;1.40;;;;;;;9.47;79.92;97975.06;107676;1251;62323;-39
2023/03/26 03:34:04;;;;;;;2.90;1.30;;;;;;;9.51;79.93;97978.92;107644;1250;61295;-39
2023/03/26 03:36:37;;;;;;;2.80;1.50;;;;;;;9.49;79.73;97979.61;107653;1250;74352;-39
2023/03/26 03:39:12;;;;;;;3.10;1.50;;;;;;;9.43;79.83;97984.41;107691;1251;68641;-39
2023/03/26 03:41:42;;;;;;;;;;;;;;;9.33;79.95;97985.01;107686;1251;74880;-39
2023/03/26 03:44:13;;;;;;;4.20;1.50;;;;;;;9.35;80.04;97999.62;107675;1251;62928;-39
2023/03/26 03:46:41;;;;;;;2.90;1.50;;;;;;;9.36;79.78;97995.60;107734;1250;61636;-39
2023/03/26 03:49:11;;;;;;;4.70;1.60;;;;;;;9.35;79.85;98001.70;107737;1250;75023;-39
2023/03/26 03:51:41;;;;;;;3.40;1.60;;;;;;;9.34;79.86;98001.61;107739;1250;69611;-39
2023/03/26 03:54:27;;;;;;;4.00;1.40;;;;;;;9.32;79.66;98001.30;107618;1250;73584;-40
2023/03/26 03:57:10;;;;;;;3.00;1.70;;;;;;;9.34;79.39;98000.23;107538;1254;62923;-39
2023/03/26 03:59:43;;;;;;;2.70;1.30;;;;;;;9.36;79.19;98000.01;107555;1250;61167;-39
2023/03/26 04:02:24;;;;;;;2.20;1.40;;;;;;;9.33;78.98;97996.06;107628;1250;73015;-40
2023/03/26 04:05:05;;;;;;;4.30;1.70;;;;;;;9.27;79.04;97997.74;106985;1252;1002834;-40
2023/03/26 04:07:35;;;;;;;2.70;1.10;;;;;;;9.19;79.10;97999.20;107602;1250;72586;-39
2023/03/26 04:10:07;;;;;;;5.50;1.50;;;;;;;9.19;79.25;97999.27;107579;1251;63218;-39
2023/03/26 04:12:55;;;;;;;2.40;1.20;;;;;;;9.23;79.18;97996.03;107667;1251;61339;-39
2023/03/26 04:15:39;;;;;;;3.10;1.60;;;;;;;9.19;79.15;98006.77;107534;1251;268361;-39
2023/03/26 04:19:13;;;;;;;4.00;1.10;;;;;;;9.09;79.17;98012.45;104268;1292;600698;-38
2023/03/26 04:21:42;;;;;;;2.40;1.40;;;;;;;8.98;79.22;98021.91;106619;1266;63072;-38
2023/03/26 04:24:11;;;;;;;3.70;1.20;;;;;;;8.94;79.25;98021.98;106624;1267;61516;-39
2023/03/26 04:27:18;;;;;;;2.60;1.20;;;;;;;8.91;79.31;98026.98;106662;1266;73464;-39
2023/03/26 04:29:48;;;;;;;3.90;1.30;;;;;;;8.81;79.61;98031.02;106672;1269;68638;-39
2023/03/26 04:32:28;;;;;;;4.20;1.50;;;;;;;8.77;79.91;98035.42;106499;1267;228197;-39
2023/03/26 04:35:02;;;;;;;3.50;1.30;;;;;;;8.73;79.94;98033.40;106649;1264;61259;-39
2023/03/26 04:37:38;;;;;;;3.10;1.20;;;;;;;8.76;79.92;98034.71;106654;1269;61220;-39
2023/03/26 04:40:19;;;;;;;2.30;1.60;;;;;;;8.77;79.95;98032.56;106702;1266;73162;-39
2023/03/26 04:43:05;;;;;;;3.30;1.50;;;;;;;8.67;80.07;98027.50;106681;1266;69642;-39
2023/03/26 04:46:02;;;;;;;4.00;1.70;;;;;;;8.64;80.47;98036.98;106768;1267;73968;-39
2023/03/26 04:48:37;;;;;;;4.30;1.70;;;;;;;8.56;80.87;98045.44;106769;1264;62910;-39
2023/03/26 04:51:08;;;;;;;1.70;1.40;;;;;;;8.57;81.07;98045.90;106809;1264;61529;-39
2023/03/26 04:53:38;;;;;;;3.50;1.90;;;;;;;8.58;81.22;98049.98;106851;1268;74151;-39
2023/03/26 04:56:38;;;;;;;3.60;2.10;;;;;;;8.49;81.48;98039.20;106744;1266;69928;-39
2023/03/26 04:59:17;;;;;;;3.80;1.90;;;;;;;8.49;81.75;98048.94;106798;1267;73975;-39
2023/03/26 05:01:45;;;;;;;5.50;2.20;;;;;;;8.46;82.09;98048.77;106775;1269;61902;-39
2023/03/26 05:04:15;;;;;;;3.20;2.10;;;;;;;8.52;82.16;98051.18;106797;1266;61415;-39
2023/03/26 05:06:44;;;;;;;6.60;2.80;;;;;;;8.59;82.07;98049.46;106741;1272;72623;-39
2023/03/26 05:09:22;;;;;;;6.50;2.40;;;;;;;8.64;82.23;98054.58;106816;1267;69666;-39
2023/03/26 05:12:10;;;;;;;3.70;2.00;;;;;;;8.62;82.34;98053.17;106792;1267;73587;-39
2023/03/26 05:14:58;;;;;;;2.50;1.90;;;;;;;8.55;82.61;98059.23;107283;1261;62245;-40
2023/03/26 05:17:41;;;;;;;3.10;1.90;;;;;;;8.60;82.83;98058.95;107264;1257;61268;-40
2023/03/26 05:20:22;;;;;;;3.00;2.20;;;;;;;8.67;82.93;98067.64;107092;1257;72846;-40
2023/03/26 05:22:55;;;;;;;4.70;2.20;;;;;;;8.68;83.12;98073.13;107218;1257;69925;-40
2023/03/26 05:25:31;;;;;;;2.70;1.80;;;;;;;8.67;83.29;98071.58;107184;1257;73656;-40
2023/03/26 05:28:00;;;;;;;3.40;1.60;;;;;;;8.74;83.41;98068.67;107194;1257;62859;-40
2023/03/26 05:30:45;;;;;;;3.30;1.80;;;;;;;8.86;83.26;98068.97;107216;1257;61237;-40
2023/03/26 05:33:15;;;;;;;3.60;2.10;;;;;;;8.89;83.14;98069.77;107060;1257;73082;-40
2023/03/26 05:36:06;;;;;;;3.70;2.00;;;;;;;8.89;83.09;98070.84;107157;1257;69470;-40
2023/03/26 05:38:35;;;;;;;3.10;1.80;;;;;;;8.87;82.84;98071.53;107264;1257;71993;-39
2023/03/26 05:41:06;;;;;;;2.50;1.80;;;;;;;8.94;82.72;98073.25;107237;1257;61252;-40
2023/03/26 05:43:36;;;;;;;3.60;2.10;;;;;;;8.97;82.55;98068.70;107257;1257;61529;-40
2023/03/26 05:46:25;;;;;;;4.70;2.20;;;;;;;8.94;82.41;98069.33;107250;1256;74465;-40
2023/03/26 05:48:54;;;;;;;2.90;1.60;;;;;;;8.89;82.50;98073.63;107065;1257;69896;-39
2023/03/26 05:51:23;;;;;;;2.70;1.60;;;;;;;8.94;82.59;98074.40;107247;1257;73877;-40
2023/03/26 05:53:59;;;;;;;4.40;1.90;;;;;;;9.05;82.60;98070.60;107075;1257;59900;-39
2023/03/26 05:56:46;;;;;;;3.00;1.90;;;;;;;9.13;82.08;98074.04;107257;1258;60551;-40
2023/03/26 05:59:40;;;;;;;3.40;1.80;;;;;;;9.17;81.91;98074.90;107047;1257;74278;-40
2023/03/26 06:02:22;;;;;;;2.80;1.30;;;;;;;9.23;81.52;98078.08;107269;1257;70453;-40
2023/03/26 06:05:18;;;;;;;4.00;1.90;;;;;;;9.40;81.41;98077.83;107008;1257;73844;-39
2023/03/26 06:07:59;;;;;;;4.80;1.60;;;;;;;9.51;81.27;98080.10;107151;1262;61600;-40
2023/03/26 06:10:38;;;;;;;3.10;2.00;;;;;;;9.59;81.01;98073.00;107199;1258;61197;-40
2023/03/26 06:13:06;;;;;;;4.10;1.80;;;;;;;9.67;80.34;98072.63;107187;1257;72518;-40
2023/03/26 06:15:39;;;;;;;4.30;2.00;;;;;;;9.80;80.33;98073.89;107208;1263;70039;-40
2023/03/26 06:18:28;;;;;;;4.40;1.80;;;;;;;9.96;80.26;98068.02;107228;1257;73869;-40
2023/03/26 06:21:20;;;;;;;5.50;2.60;;;;;;;10.05;79.96;98065.88;107227;1257;62999;-40
2023/03/26 06:23:53;;;;;;;4.20;2.20;;;;;;;10.10;79.65;98068.95;107236;1257;61191;-39
2023/03/26 06:26:37;;;;;;;2.80;1.90;;;;;;;10.17;79.68;98070.52;107075;1263;73253;-39
2023/03/26 06:29:22;;;;;;;3.80;2.20;;;;;;;10.30;78.99;98064.79;107324;1257;69709;-40
2023/03/26 06:32:17;;;;;;;4.30;2.20;;;;;;;10.36;78.18;98067.50;107289;1257;73276;-39
2023/03/26 06:34:54;;;;;;;4.60;2.50;;;;;;;10.40;76.95;98067.02;107258;1257;61515;-40
2023/03/26 06:37:22;;;;;;;3.60;1.90;;;;;;;10.44;77.02;98073.36;107370;1257;60597;-40
2023/03/26 06:39:56;;;;;;;3.00;1.80;;;;;;;10.54;77.06;98077.23;107334;1257;74187;-40
2023/03/26 06:42:45;;;;;;;5.90;2.60;;;;;;;10.67;76.19;98070.08;107322;1257;69942;-40
2023/03/26 06:46:04;;;;;;;2.70;2.10;;;;;;;10.73;74.42;98069.45;107163;1257;73902;-39
2023/03/26 06:48:40;;;;;;;5.40;2.30;;;;;;;10.74;74.34;98077.04;107278;1260;61312;-40
2023/03/26 06:51:28;;;;;;;3.40;2.30;;;;;;;10.79;73.72;98081.59;107310;1258;61528;-40
2023/03/26 06:54:16;;;;;;;7.00;2.80;;;;;;;10.95;74.16;98080.46;107320;1257;73979;-40
2023/03/26 06:56:52;;;;;;;5.10;3.70;;;;;;;11.08;74.93;98077.39;107323;1260;69023;-39
2023/03/26 06:59:39;;;;;;;6.10;4.30;;;;;;;11.13;75.10;98075.27;107302;1260;73879;-40
2023/03/26 07:02:37;;;;;;;6.90;4.20;;;;;;;11.11;75.22;98074.81;106818;1265;63381;-40
2023/03/26 07:05:25;;;;;;;7.70;5.00;;;;;;;11.17;75.14;98075.02;107241;1260;61236;-40
2023/03/26 07:08:32;;;;;;;7.40;5.40;;;;;;;11.19;74.65;98075.09;107247;1257;74509;-40
2023/03/26 07:11:33;;;;;;;8.60;5.60;;;;;;;11.19;74.74;98073.62;106985;1256;69968;-40
2023/03/26 07:14:21;;;;;;;9.60;4.70;;;;;;;11.27;74.23;98079.32;107258;1257;73841;-40
2023/03/26 07:17:08;;;;;;;7.20;5.90;;;;;;;11.40;74.53;98071.58;107231;1257;61325;-40
2023/03/26 07:19:55;;;;;;;9.80;7.20;;;;;;;11.47;73.55;98080.23;107284;1260;61323;-39
2023/03/26 07:22:26;;;;;;;7.30;5.70;;;;;;;11.49;73.38;98074.02;107269;1260;73577;-39
2023/03/26 07:25:05;;;;;;;8.90;5.80;;;;;;;11.51;72.51;98071.45;107266;1260;69920;-40
2023/03/26 07:28:45;;;;;;;7.90;5.90;;;;;;;11.56;72.37;98074.98;107250;1258;72865;-40
2023/03/26 07:31:49;;;;;;;7.60;6.00;;;;;;;11.49;72.53;98081.77;106856;1263;61279;-39
2023/03/26 07:34:49;;;;;;;9.50;6.50;;;;;;;11.36;73.17;98086.89;106859;1263;61563;-38
2023/03/26 07:38:12;;;;;;;9.00;7.10;;;;;;;11.25;73.70;98090.41;107168;1257;74248;-38
2023/03/26 07:41:09;;;;;;;9.90;7.90;;;;;;;11.30;73.99;98089.92;107124;1258;70135;-39
2023/03/26 07:44:27;;;;;;;9.80;8.00;;;;;;;11.26;74.15;98093.98;107297;1257;73911;-38
2023/03/26 07:47:30;;;;;;;10.90;8.40;;;;;;;11.19;74.71;98103.30;107281;1258;61309;-40
2023/03/26 07:50:19;;;;;;;10.90;8.20;;;;;;;11.11;75.16;98104.66;107302;1258;61291;-40
2023/03/26 07:53:09;;;;;;;13.70;8.70;;;;;;;11.12;75.30;98104.42;107203;1257;74230;-39
2023/03/26 07:56:15;;;;;;;12.50;9.20;;;;;;;11.17;75.99;98101.38;107342;1257;69980;-39
2023/03/26 07:59:24;;;;;;;14.70;10.40;;;;;;;11.38;76.54;98096.32;107254;1260;73318;-40
2023/03/26 08:02:40;;;;;;;12.70;9.50;;;;;;;11.79;72.90;98097.45;106726;1263;63223;-39
2023/03/26 08:06:09;;;;;;;13.00;9.10;;;;;;;11.96;70.98;98099.05;106730;1263;61231;-40
2023/03/26 08:09:02;;;;;;;13.30;10.40;;;;;;;11.97;69.77;98093.61;107216;1257;74126;-40
2023/03/26 08:12:05;;;;;;;17.00;10.40;;;;;;;11.84;69.09;98097.65;107301;1257;68104;-40
2023/03/26 08:15:00;;;;;;;14.50;8.80;;;;;;;11.73;69.84;98100.56;107306;1260;73872;-40
2023/03/26 08:17:47;;;;;;;14.50;9.90;;;;;;;11.77;69.98;98099.09;107355;1258;59358;-40
2023/03/26 08:20:27;;;;;;;16.80;10.20;;;;;;;11.84;70.47;98101.60;107382;1258;59726;-40
2023/03/26 08:23:08;;;;;;;13.70;10.50;;;;;;;11.88;69.48;98099.02;107365;1257;74242;-39
2023/03/26 08:26:10;;;;;;;13.40;9.20;;;;;;;11.90;69.20;98104.61;107416;1257;69666;-40
2023/03/26 08:28:58;;;;;;;11.50;9.10;;;;;;;12.02;68.80;98104.35;107318;1257;73924;-39
2023/03/26 08:31:32;;;;;;;12.90;8.60;;;;;;;12.24;67.88;98106.44;107338;1257;61390;-40
2023/03/26 08:34:00;;;;;;;11.30;8.40;;;;;;;12.36;66.87;98111.61;107275;1258;60734;-39
2023/03/26 08:36:30;;;;;;;;;;;;;;;12.38;66.86;98113.61;107327;1260;74391;-40
2023/03/26 08:38:59;;;;;;;11.10;8.70;;;;;;;12.28;66.65;98115.56;107370;1257;70021;-40
2023/03/26 08:41:55;;;;;;;12.10;9.50;;;;;;;12.16;66.93;98118.22;107312;1260;72433;-40
2023/03/26 08:44:56;;;;;;;;;;;;;;;12.10;67.09;98116.95;107327;1261;63235;-39
2023/03/26 08:47:55;;;;;;;12.90;9.50;;;;;;;12.02;67.62;98112.96;107066;1258;61304;-39
2023/03/26 08:50:43;;;;;;;;;;;;;;;11.89;67.55;98115.40;107236;1257;74238;-40
2023/03/26 08:53:36;;;;;;;15.90;9.20;;;;;;;11.71;68.48;98119.12;107324;1260;69244;-39
2023/03/26 08:56:29;;;;;;;14.30;10.20;;;;;;;11.58;68.84;98117.86;107339;1256;72798;-40
2023/03/26 08:59:13;;;;;;;15.70;9.60;;;;;;;11.51;68.93;98113.79;107016;1258;63144;-39
2023/03/26 09:02:15;;;;;;;11.90;9.10;;;;;;;11.55;68.97;98118.58;107294;1258;61615;-40
2023/03/26 09:05:21;;;;;;;13.00;9.60;;;;;;;11.51;69.17;98112.70;107255;1260;75033;-40
2023/03/26 09:08:04;;;;;;;12.80;9.80;;;;;;;11.47;69.78;98112.48;107243;1260;69890;-40
2023/03/26 09:10:56;;;;;;;13.60;8.80;;;;;;;11.42;70.44;98112.52;107264;1260;73859;-40
2023/03/26 09:13:44;;;;;;;10.20;7.70;;;;;;;11.51;70.85;98108.98;107297;1260;63162;-40
2023/03/26 09:16:34;;;;;;;12.20;9.70;;;;;;;11.57;70.67;98106.16;107258;1260;61556;-39
2023/03/26 09:19:31;;;;;;;11.90;9.50;;;;;;;11.62;69.30;98104.04;107273;1257;74969;-39
2023/03/26 09:22:28;;;;;;;11.70;9.00;;;;;;;11.54;69.18;98102.92;107295;1260;69762;-39
2023/03/26 09:25:22;;;;;;;13.30;8.50;;;;;;;11.41;69.71;98108.02;107332;1257;73696;-38
2023/03/26 09:28:26;;;;;;;11.50;7.40;;;;;;;11.42;69.99;98110.65;107280;1258;60368;-39
2023/03/26 09:31:26;;;;;;;12.20;8.80;;;;;;;11.41;70.32;98116.48;107308;1257;61507;-39
2023/03/26 09:34:16;;;;;;;13.70;7.70;;;;;;;11.37;70.01;98116.33;107309;1258;72666;-39
2023/03/26 09:36:50;;;;;;;9.10;7.30;;;;;;;11.37;70.40;98123.70;107190;1261;69515;-39
2023/03/26 09:39:29;;;;;;;15.80;9.70;;;;;;;11.45;70.47;98123.90;107327;1260;73691;-39
2023/03/26 09:42:08;;;;;;;10.90;7.30;;;;;;;11.52;69.92;98122.39;107313;1260;60283;-39
2023/03/26 09:44:57;;;;;;;11.30;7.10;;;;;;;11.53;69.26;98123.46;107260;1257;60550;-39
2023/03/26 09:47:44;;;;;;;9.80;7.00;;;;;;;11.56;69.29;98125.33;107264;1257;72635;-39
2023/03/26 09:50:36;;;;;;;8.60;6.50;;;;;;;11.59;69.51;98122.83;107266;1257;69565;-39
2023/03/26 09:53:10;;;;;;;9.10;6.40;;;;;;;11.72;69.71;98121.83;107100;1260;73866;-39
2023/03/26 09:55:58;;;;;;;9.30;5.80;;;;;;;11.84;69.74;98117.05;107281;1260;61605;-39
2023/03/26 09:58:35;;;;;;;9.00;5.70;;;;;;;11.99;68.64;98109.33;107259;1257;61521;-39
2023/03/26 10:01:19;;;;;;;7.70;5.10;;;;;;;12.07;68.14;98109.13;107286;1260;74840;-39
2023/03/26 10:04:00;;;;;;;7.10;5.00;;;;;;;12.11;67.21;98111.52;107281;1258;68319;-40
2023/03/26 10:07:11;;;;;;;7.20;5.30;;;;;;;12.15;67.32;98112.64;107244;1257;72852;-40
2023/03/26 10:10:00;;;;;;;6.30;4.10;;;;;;;12.26;66.79;98107.81;107238;1262;61783;-40
2023/03/26 10:12:36;;;;;;;6.40;4.20;;;;;;;12.30;66.30;98106.70;107260;1258;60438;-40
2023/03/26 10:15:10;;;;;;;8.20;4.10;;;;;;;12.34;65.46;98101.39;107341;1258;74887;-39
2023/03/26 10:18:07;;;;;;;6.80;4.10;;;;;;;12.39;65.42;98099.94;107274;1257;69698;-40
2023/03/26 10:21:03;;;;;;;6.00;4.00;;;;;;;12.50;64.95;98100.07;107259;1257;73509;-38
2023/03/26 10:23:47;;;;;;;4.60;3.70;;;;;;;12.66;64.54;98102.80;107270;1257;63226;-40
2023/03/26 10:26:23;;;;;;;4.80;3.20;;;;;;;12.96;63.77;98103.44;107172;1258;61234;-40
2023/03/26 10:28:58;;;;;;;4.90;3.60;;;;;;;13.18;62.52;98103.36;107275;1257;73219;-40
2023/03/26 10:31:36;;;;;;;4.80;3.00;;;;;;;13.31;61.95;98099.40;107337;1258;67882;-40
2023/03/26 10:34:27;;;;;;;5.30;3.40;;;;;;;13.42;61.52;98098.88;107227;1257;73580;-40
2023/03/26 10:37:06;;;;;;;7.40;3.60;;;;;;;13.47;60.93;98096.25;107256;1257;61267;-40
2023/03/26 10:40:20;;;;;;;3.40;3.10;;;;;;;13.44;60.79;98101.50;107300;1258;60447;-40
2023/03/26 10:43:13;;;;;;;6.50;3.30;;;;;;;13.39;60.52;98103.02;107334;1262;72737;-40
2023/03/26 10:46:12;;;;;;;4.20;3.50;;;;;;;13.31;61.19;98102.13;107142;1257;69767;-40
2023/03/26 10:48:41;;;;;;;5.10;3.30;;;;;;;13.25;60.70;98097.45;107056;1257;72960;-40
2023/03/26 10:51:29;;;;;;;6.40;3.20;;;;;;;13.20;61.03;98096.58;107075;1258;60417;-40
2023/03/26 10:54:18;;;;;;;3.60;2.40;;;;;;;13.20;60.95;98095.02;107121;1262;61483;-40
2023/03/26 10:56:48;;;;;;;7.50;4.20;;;;;;;13.41;60.59;98090.70;107220;1257;74426;-40
2023/03/26 10:59:17;;;;;;;7.50;5.40;;;;;;;13.74;60.53;98088.24;107187;1257;68933;-40
2023/03/26 11:01:56;;;;;;;5.80;3.70;;;;;;;14.22;59.01;98080.98;107181;1257;73726;-40
2023/03/26 11:04:50;;;;;;;9.00;4.80;;;;;;;14.69;57.74;98082.23;107162;1258;61589;-40
2023/03/26 11:08:00;;;;;;;3.90;3.40;;;;;;;15.04;56.13;98077.10;107135;1257;61536;-40
2023/03/26 11:10:42;;;;;;;3.60;2.60;;;;;;;15.19;54.11;98072.75;106696;1263;75064;-40
2023/03/26 11:13:39;;;;;;;3.70;2.20;;;;;;;15.22;52.42;98074.33;107204;1257;69827;-38
2023/03/26 11:16:10;;;;;;;2.90;2.30;;;;;;;15.30;52.45;98066.92;107154;1257;73665;-38
2023/03/26 11:19:12;;;;;;;2.30;1.70;;;;;;;15.33;52.37;98069.83;107138;1258;61310;-39
2023/03/26 11:21:50;;;;;;;2.30;1.80;;;;;;;15.36;51.27;98068.34;107207;1262;60593;-39
2023/03/26 11:24:58;;;;;;;2.40;1.80;;;;;;;15.28;50.71;98065.33;107229;1257;75034;-38
2023/03/26 11:27:51;;;;;;;2.10;1.40;;;;;;;15.01;51.00;98061.80;107190;1262;69637;-39
2023/03/26 11:30:32;;;;;;;1.90;1.40;;;;;;;14.74;51.78;98063.82;107180;1257;73827;-39
2023/03/26 11:33:04;;;;;;;2.90;1.80;;;;;;;14.63;52.58;98065.33;107226;1257;61396;-39
2023/03/26 11:35:35;;;;;;;1.90;1.50;;;;;;;14.74;52.15;98065.23;107231;1257;59628;-39
2023/03/26 11:38:20;;;;;;;2.60;1.80;;;;;;;14.87;51.73;98065.77;107221;1262;74840;-39
2023/03/26 11:40:51;;;;;;;2.70;2.00;;;;;;;14.84;50.57;98064.80;107173;1257;69978;-39
2023/03/26 11:43:35;;;;;;;2.90;1.70;;;;;;;14.68;51.35;98063.77;107080;1257;73725;-39
2023/03/26 11:46:10;;;;;;;2.90;1.90;;;;;;;14.53;51.82;98063.34;107069;1257;62483;-39
2023/03/26 11:48:45;;;;;;;2.10;1.70;;;;;;;14.47;52.23;98065.02;107109;1257;60546;-39
2023/03/26 11:51:25;;;;;;;2.20;1.50;;;;;;;14.43;52.23;98059.30;107159;1257;74372;-39
2023/03/26 11:53:53;;;;;;;2.10;1.60;;;;;;;14.48;52.17;98060.31;107078;1257;69709;-39
2023/03/26 11:56:26;;;;;;;3.20;1.60;;;;;;;14.65;51.30;98059.39;107093;1257;73836;-40
2023/03/26 11:59:08;;;;;;;4.40;2.30;;;;;;;14.91;50.28;98056.80;107256;1257;60385;-39
2023/03/26 12:02:03;;;;;;;2.30;1.30;;;;;;;15.07;50.13;98053.28;107222;1263;60335;-39
2023/03/26 12:04:34;;;;;;;3.50;1.20;;;;;;;15.06;49.01;98053.30;107293;1260;74250;-39
2023/03/26 12:07:08;;;;;;;2.90;1.40;;;;;;;14.99;49.82;98048.84;107229;1263;69834;-39
2023/03/26 12:09:36;;;;;;;3.80;3.30;;;;;;;14.95;49.41;98048.38;107203;1262;73677;-39
2023/03/26 12:12:12;;;;;;;2.20;1.40;;;;;;;14.81;49.91;98047.33;107115;1263;61662;-40
2023/03/26 12:14:43;;;;;;;2.60;1.60;;;;;;;14.63;50.93;98044.92;107110;1257;61422;-40
2023/03/26 12:17:15;;;;;;;2.00;1.40;;;;;;;14.56;50.17;98037.41;107220;1257;74787;-40
2023/03/26 12:19:44;;;;;;;2.70;1.50;;;;;;;14.60;50.65;98043.51;107193;1263;69906;-40
2023/03/26 12:22:28;;;;;;;2.80;1.60;;;;;;;14.65;50.41;98036.92;107328;1260;72929;-40
2023/03/26 12:25:27;;;;;;;2.30;1.50;;;;;;;14.64;50.25;98040.39;107319;1257;61609;-40
2023/03/26 12:28:01;;;;;;;3.60;1.50;;;;;;;14.52;50.24;98044.44;107338;1257;61468;-39
2023/03/26 12:30:36;;;;;;;2.50;1.60;;;;;;;14.41;50.26;98038.00;107328;1257;74958;-39
2023/03/26 12:33:13;;;;;;;2.20;1.40;;;;;;;14.32;50.58;98037.11;107287;1258;69913;-39
2023/03/26 12:35:41;;;;;;;2.60;1.60;;;;;;;14.29;51.25;98034.90;107296;1256;71642;-39